createdAt,value
2018-03-27T00:00:15.586Z,0
2018-03-27T00:01:25.728Z,0
2018-03-27T00:02:35.896Z,0
2018-03-27T00:03:45.789Z,0
2018-03-27T00:04:55.978Z,0
2018-03-27T00:06:05.862Z,0
2018-03-27T00:07:16.057Z,0
2018-03-27T00:08:26.190Z,0
2018-03-27T00:09:36.379Z,0
2018-03-27T00:10:46.286Z,0
2018-03-27T00:11:56.411Z,0
2018-03-27T00:13:06.567Z,0
2018-03-27T00:14:16.719Z,0
2018-03-27T00:15:26.889Z,0
2018-03-27T00:16:37.087Z,0
2018-03-27T00:17:47.266Z,0
2018-03-27T00:18:57.426Z,0
2018-03-27T00:20:07.554Z,0
2018-03-27T00:21:17.434Z,0
2018-03-27T00:22:27.362Z,0
2018-03-27T00:23:37.494Z,0
2018-03-27T00:24:47.698Z,0
2018-03-27T00:25:57.987Z,0
2018-03-27T00:27:08.133Z,0
2018-03-27T00:28:18.340Z,0
2018-03-27T00:29:28.224Z,0
2018-03-27T00:30:38.097Z,0
2018-03-27T00:31:47.973Z,0
2018-03-27T00:32:58.152Z,0
2018-03-27T00:34:07.507Z,0
2018-03-27T00:35:17.414Z,0
2018-03-27T00:36:27.562Z,0
2018-03-27T00:37:37.467Z,0
2018-03-27T00:38:47.611Z,0
2018-03-27T00:39:57.494Z,0
2018-03-27T00:41:07.663Z,0
2018-03-27T00:42:17.279Z,0
2018-03-27T00:43:27.280Z,0
2018-03-27T00:44:37.197Z,0
2018-03-27T00:45:46.971Z,0
2018-03-27T00:46:57.030Z,0
2018-03-27T00:48:06.816Z,0
2018-03-27T00:49:16.699Z,0
2018-03-27T00:50:26.831Z,0
2018-03-27T00:51:36.680Z,0
2018-03-27T00:52:46.811Z,0
2018-03-27T00:53:57.001Z,0
2018-03-27T00:55:07.154Z,0
2018-03-27T00:56:17.386Z,0
2018-03-27T00:57:27.586Z,0
2018-03-27T00:58:37.732Z,0
2018-03-27T00:59:47.836Z,0
2018-03-27T01:00:57.987Z,0
2018-03-27T01:02:08.154Z,0
2018-03-27T01:03:18.331Z,0
2018-03-27T01:04:28.483Z,0
2018-03-27T01:05:38.732Z,0
2018-03-27T01:06:48.881Z,0
2018-03-27T01:07:59.012Z,0
2018-03-27T01:09:09.220Z,0
2018-03-27T01:10:18.842Z,0
2018-03-27T01:11:28.957Z,0
2018-03-27T01:12:39.134Z,0
2018-03-27T01:13:49.262Z,0
2018-03-27T01:14:59.433Z,0
2018-03-27T01:16:09.595Z,0
2018-03-27T01:17:19.759Z,0
2018-03-27T01:18:29.888Z,0
2018-03-27T01:19:40.032Z,0
2018-03-27T01:20:49.981Z,0
2018-03-27T01:22:00.100Z,0
2018-03-27T01:23:10.254Z,0
2018-03-27T01:24:20.118Z,0
2018-03-27T01:25:29.890Z,0
2018-03-27T01:26:40.013Z,0
2018-03-27T01:27:50.123Z,0
2018-03-27T01:29:00.161Z,0
2018-03-27T01:30:09.977Z,0
2018-03-27T01:31:19.886Z,0
2018-03-27T01:32:30.048Z,0
2018-03-27T01:33:39.776Z,0
2018-03-27T01:34:49.651Z,0
2018-03-27T01:35:59.777Z,0
2018-03-27T01:37:09.698Z,0
2018-03-27T01:38:19.236Z,0
2018-03-27T01:39:29.008Z,0
2018-03-27T01:40:38.500Z,0
2018-03-27T01:41:48.394Z,0
2018-03-27T01:42:58.285Z,0
2018-03-27T01:44:08.216Z,0
2018-03-27T01:45:18.105Z,0
2018-03-27T01:46:29.212Z,0
2018-03-27T01:47:39.084Z,0
2018-03-27T01:48:49.230Z,0
2018-03-27T01:49:59.372Z,0
2018-03-27T01:51:09.244Z,0
2018-03-27T01:52:19.158Z,0
2018-03-27T01:53:29.390Z,0
2018-03-27T01:54:39.556Z,0
2018-03-27T01:55:49.704Z,0
2018-03-27T01:56:59.834Z,0
2018-03-27T01:58:09.479Z,0
2018-03-27T01:59:19.272Z,0
2018-03-27T02:00:29.394Z,0
2018-03-27T02:01:39.281Z,0
2018-03-27T02:02:50.389Z,0
2018-03-27T02:04:00.280Z,0
2018-03-27T02:05:10.411Z,0
2018-03-27T02:06:20.607Z,0
2018-03-27T02:07:30.721Z,0
2018-03-27T02:08:40.898Z,0
2018-03-27T02:09:51.120Z,0
2018-03-27T02:11:01.287Z,0
2018-03-27T02:12:11.460Z,0
2018-03-27T02:13:21.358Z,0
2018-03-27T02:14:31.496Z,0
2018-03-27T02:15:41.665Z,0
2018-03-27T02:16:51.546Z,0
2018-03-27T02:18:01.701Z,0
2018-03-27T02:19:11.921Z,0
2018-03-27T02:20:22.144Z,0
2018-03-27T02:21:32.361Z,0
2018-03-27T02:22:42.512Z,0
2018-03-27T02:23:52.790Z,0
2018-03-27T02:25:02.676Z,0
2018-03-27T02:26:12.562Z,0
2018-03-27T02:27:22.699Z,0
2018-03-27T02:28:32.674Z,0
2018-03-27T02:29:42.893Z,0
2018-03-27T02:30:53.133Z,0
2018-03-27T02:32:03.366Z,0
2018-03-27T02:33:13.582Z,0
2018-03-27T02:34:23.795Z,0
2018-03-27T02:35:33.943Z,0
2018-03-27T02:36:44.147Z,0
2018-03-27T02:37:54.300Z,0
2018-03-27T02:39:04.200Z,0
2018-03-27T02:40:14.334Z,0
2018-03-27T02:41:24.466Z,0
2018-03-27T02:42:34.649Z,0
2018-03-27T02:43:44.793Z,0
2018-03-27T02:44:54.420Z,0
2018-03-27T02:46:04.584Z,0
2018-03-27T02:47:14.405Z,0
2018-03-27T02:48:24.329Z,0
2018-03-27T02:49:34.461Z,0
2018-03-27T02:50:44.245Z,0
2018-03-27T02:51:54.374Z,0
2018-03-27T02:53:04.579Z,0
2018-03-27T02:54:14.779Z,0
2018-03-27T02:55:24.680Z,0
2018-03-27T02:56:34.562Z,0
2018-03-27T02:57:44.437Z,0
2018-03-27T02:58:54.578Z,0
2018-03-27T03:00:04.740Z,0
2018-03-27T03:01:14.997Z,0
2018-03-27T03:02:25.150Z,0
2018-03-27T03:03:35.282Z,0
2018-03-27T03:04:44.880Z,0
2018-03-27T03:05:54.987Z,0
2018-03-27T03:07:05.154Z,0
2018-03-27T03:08:15.305Z,0
2018-03-27T03:09:25.512Z,0
2018-03-27T03:10:35.736Z,0
2018-03-27T03:11:45.926Z,0
2018-03-27T03:12:55.797Z,0
2018-03-27T03:14:05.655Z,0
2018-03-27T03:15:15.513Z,0
2018-03-27T03:16:25.632Z,0
2018-03-27T03:17:35.512Z,0
2018-03-27T03:18:45.638Z,0
2018-03-27T03:19:55.800Z,0
2018-03-27T03:21:05.985Z,0
2018-03-27T03:22:15.821Z,0
2018-03-27T03:23:25.325Z,0
2018-03-27T03:24:35.178Z,0
2018-03-27T03:25:45.342Z,0
2018-03-27T03:26:55.196Z,0
2018-03-27T03:28:05.080Z,0
2018-03-27T03:29:15.191Z,0
2018-03-27T03:30:24.806Z,0
2018-03-27T03:31:34.978Z,0
2018-03-27T03:32:45.128Z,0
2018-03-27T03:33:55.129Z,0
2018-03-27T03:35:05.282Z,0
2018-03-27T03:36:15.158Z,0
2018-03-27T03:37:25.328Z,0
2018-03-27T03:38:35.463Z,0
2018-03-27T03:39:45.616Z,0
2018-03-27T03:40:55.769Z,0
2018-03-27T03:42:05.963Z,0
2018-03-27T03:43:16.221Z,0
2018-03-27T03:44:26.147Z,0
2018-03-27T03:45:36.305Z,0
2018-03-27T03:46:46.440Z,0
2018-03-27T03:47:55.971Z,0
2018-03-27T03:49:06.134Z,0
2018-03-27T03:50:16.272Z,0
2018-03-27T03:51:26.406Z,0
2018-03-27T03:52:36.657Z,0
2018-03-27T03:53:46.266Z,0
2018-03-27T03:54:55.855Z,0
2018-03-27T03:56:06.085Z,0
2018-03-27T03:57:16.334Z,0
2018-03-27T03:58:26.212Z,0
2018-03-27T03:59:36.354Z,0
2018-03-27T04:00:46.086Z,0
2018-03-27T04:01:56.324Z,0
2018-03-27T04:03:06.452Z,0
2018-03-27T04:04:16.330Z,0
2018-03-27T04:05:26.248Z,0
2018-03-27T04:06:36.380Z,0
2018-03-27T04:07:46.403Z,0
2018-03-27T04:08:56.555Z,0
2018-03-27T04:10:06.065Z,0
2018-03-27T04:11:16.915Z,0
2018-03-27T04:12:27.114Z,0
2018-03-27T04:13:36.981Z,0
2018-03-27T04:14:47.163Z,0
2018-03-27T04:15:57.323Z,0
2018-03-27T04:17:07.450Z,0
2018-03-27T04:18:17.360Z,0
2018-03-27T04:19:27.480Z,0
2018-03-27T04:20:37.387Z,0
2018-03-27T04:21:47.317Z,0
2018-03-27T04:22:57.181Z,0
2018-03-27T04:24:06.951Z,0
2018-03-27T04:25:16.831Z,0
2018-03-27T04:26:26.690Z,0
2018-03-27T04:27:36.941Z,0
2018-03-27T04:28:47.081Z,0
2018-03-27T04:29:57.311Z,0
2018-03-27T04:31:07.481Z,0
2018-03-27T04:32:17.694Z,4
2018-03-27T04:33:27.928Z,4
2018-03-27T04:34:38.118Z,0
2018-03-27T04:35:48.272Z,4
2018-03-27T04:36:58.635Z,4
2018-03-27T04:38:08.820Z,4
2018-03-27T04:39:19.043Z,4
2018-03-27T04:40:29.192Z,8
2018-03-27T04:41:39.371Z,8
2018-03-27T04:42:49.278Z,12
2018-03-27T04:43:59.472Z,12
2018-03-27T04:45:09.607Z,16
2018-03-27T04:46:19.739Z,20
2018-03-27T04:47:29.408Z,24
2018-03-27T04:48:38.921Z,32
2018-03-27T04:49:49.116Z,36
2018-03-27T04:50:58.971Z,40
2018-03-27T04:52:08.890Z,52
2018-03-27T04:53:19.292Z,56
2018-03-27T04:54:28.923Z,68
2018-03-27T04:55:38.478Z,80
2018-03-27T04:56:48.373Z,88
2018-03-27T04:57:58.248Z,104
2018-03-27T04:59:08.036Z,116
2018-03-27T05:00:17.893Z,136
2018-03-27T05:01:28.002Z,152
2018-03-27T05:02:37.877Z,168
2018-03-27T05:03:48.036Z,192
2018-03-27T05:04:57.966Z,208
2018-03-27T05:06:07.485Z,228
2018-03-27T05:07:17.621Z,244
2018-03-27T05:08:27.797Z,268
2018-03-27T05:09:37.327Z,292
2018-03-27T05:10:47.721Z,312
2018-03-27T05:11:57.615Z,332
2018-03-27T05:13:07.797Z,356
2018-03-27T05:14:17.065Z,384
2018-03-27T05:15:26.958Z,408
2018-03-27T05:16:37.136Z,432
2018-03-27T05:17:47.339Z,460
2018-03-27T05:18:57.509Z,492
2018-03-27T05:20:07.713Z,524
2018-03-27T05:21:17.988Z,560
2018-03-27T05:22:28.133Z,592
2018-03-27T05:23:38.252Z,632
2018-03-27T05:24:48.394Z,652
2018-03-27T05:25:58.624Z,668
2018-03-27T05:27:08.792Z,692
2018-03-27T05:28:18.903Z,736
2018-03-27T05:29:29.053Z,768
2018-03-27T05:30:39.214Z,800
2018-03-27T05:31:49.301Z,832
2018-03-27T05:32:59.613Z,844
2018-03-27T05:34:09.742Z,856
2018-03-27T05:35:19.912Z,880
2018-03-27T05:36:30.362Z,928
2018-03-27T05:37:40.506Z,976
2018-03-27T05:38:50.728Z,1020
2018-03-27T05:40:00.594Z,1056
2018-03-27T05:41:10.454Z,1088
2018-03-27T05:42:20.429Z,1136
2018-03-27T05:43:30.080Z,1196
2018-03-27T05:44:39.969Z,1268
2018-03-27T05:45:49.866Z,1344
2018-03-27T05:46:59.988Z,1424
2018-03-27T05:48:09.997Z,1520
2018-03-27T05:49:19.880Z,1636
2018-03-27T05:50:29.762Z,1760
2018-03-27T05:51:39.278Z,1856
2018-03-27T05:52:48.899Z,1920
2018-03-27T05:53:58.765Z,1944
2018-03-27T05:55:08.627Z,1960
2018-03-27T05:56:18.758Z,1964
2018-03-27T05:57:28.906Z,1992
2018-03-27T05:58:38.153Z,2064
2018-03-27T05:59:48.059Z,2136
2018-03-27T06:00:57.988Z,2212
2018-03-27T06:02:07.845Z,2300
2018-03-27T06:03:17.759Z,2428
2018-03-27T06:04:27.883Z,2512
2018-03-27T06:05:38.048Z,2464
2018-03-27T06:06:48.174Z,2428
2018-03-27T06:07:58.374Z,2440
2018-03-27T06:09:08.522Z,2540
2018-03-27T06:10:18.376Z,2676
2018-03-27T06:11:28.511Z,2712
2018-03-27T06:12:38.756Z,2676
2018-03-27T06:13:48.865Z,2696
2018-03-27T06:14:59.015Z,2800
2018-03-27T06:16:08.688Z,2960
2018-03-27T06:17:18.311Z,3412
2018-03-27T06:18:28.163Z,3612
2018-03-27T06:19:38.299Z,3640
2018-03-27T06:20:48.493Z,3584
2018-03-27T06:21:58.678Z,3428
2018-03-27T06:23:08.833Z,3300
2018-03-27T06:24:18.999Z,3260
2018-03-27T06:25:28.800Z,3204
2018-03-27T06:26:39.008Z,3136
2018-03-27T06:27:49.135Z,3088
2018-03-27T06:28:59.140Z,3152
2018-03-27T06:30:09.056Z,3328
2018-03-27T06:31:18.969Z,3560
2018-03-27T06:32:29.109Z,3920
2018-03-27T06:33:39.350Z,4184
2018-03-27T06:34:48.968Z,4396
2018-03-27T06:35:59.124Z,4680
2018-03-27T06:37:09.084Z,4748
2018-03-27T06:38:19.323Z,4608
2018-03-27T06:39:29.217Z,4612
2018-03-27T06:40:39.117Z,4544
2018-03-27T06:41:49.025Z,4344
2018-03-27T06:42:59.226Z,4224
2018-03-27T06:44:09.422Z,4152
2018-03-27T06:45:19.588Z,4240
2018-03-27T06:46:29.481Z,4704
2018-03-27T06:47:39.670Z,5100
2018-03-27T06:48:49.660Z,5104
2018-03-27T06:49:59.403Z,4980
2018-03-27T06:51:09.593Z,4924
2018-03-27T06:52:19.718Z,5096
2018-03-27T06:53:29.867Z,5504
2018-03-27T06:54:40.030Z,5980
2018-03-27T06:55:50.171Z,6316
2018-03-27T06:57:00.326Z,6524
2018-03-27T06:58:10.583Z,6472
2018-03-27T06:59:20.741Z,6128
2018-03-27T07:00:31.029Z,5636
2018-03-27T07:01:41.272Z,5276
2018-03-27T07:02:51.413Z,5204
2018-03-27T07:04:01.621Z,5444
2018-03-27T07:05:11.913Z,5916
2018-03-27T07:06:22.300Z,6240
2018-03-27T07:07:32.536Z,6400
2018-03-27T07:08:42.670Z,6532
2018-03-27T07:09:52.840Z,6848
2018-03-27T07:11:03.097Z,7256
2018-03-27T07:12:13.685Z,7696
2018-03-27T07:13:24.048Z,8056
2018-03-27T07:14:34.237Z,8188
2018-03-27T07:15:44.419Z,8204
2018-03-27T07:16:54.316Z,8100
2018-03-27T07:18:04.510Z,8244
2018-03-27T07:19:14.748Z,8456
2018-03-27T07:20:24.963Z,8304
2018-03-27T07:21:35.213Z,8020
2018-03-27T07:22:45.202Z,8120
2018-03-27T07:23:55.385Z,8704
2018-03-27T07:25:05.563Z,9540
2018-03-27T07:26:15.780Z,10452
2018-03-27T07:27:26.110Z,11244
2018-03-27T07:28:36.361Z,11672
2018-03-27T07:29:46.570Z,11520
2018-03-27T07:30:56.859Z,10864
2018-03-27T07:32:07.024Z,9964
2018-03-27T07:33:17.192Z,9656
2018-03-27T07:34:27.395Z,9644
2018-03-27T07:35:37.535Z,9960
2018-03-27T07:36:47.950Z,10420
2018-03-27T07:37:58.221Z,11288
2018-03-27T07:39:08.383Z,11456
2018-03-27T07:40:18.588Z,11852
2018-03-27T07:41:28.372Z,11852
2018-03-27T07:42:38.592Z,11924
2018-03-27T07:43:48.739Z,11628
2018-03-27T07:44:58.695Z,11492
2018-03-27T07:46:08.653Z,11888
2018-03-27T07:47:18.874Z,12056
2018-03-27T07:48:29.051Z,11784
2018-03-27T07:49:39.424Z,11736
2018-03-27T07:50:49.661Z,11720
2018-03-27T07:51:59.807Z,11792
2018-03-27T07:53:10.117Z,11960
2018-03-27T07:54:20.357Z,12120
2018-03-27T07:55:30.607Z,12400
2018-03-27T07:56:40.829Z,12432
2018-03-27T07:57:50.979Z,12236
2018-03-27T07:59:01.201Z,12032
2018-03-27T08:00:11.332Z,11872
2018-03-27T08:01:21.508Z,11924
2018-03-27T08:02:31.381Z,12148
2018-03-27T08:03:41.787Z,12264
2018-03-27T08:04:51.905Z,12580
2018-03-27T08:06:02.071Z,12700
2018-03-27T08:07:12.299Z,12700
2018-03-27T08:08:22.450Z,12652
2018-03-27T08:09:32.436Z,12864
2018-03-27T08:10:42.813Z,13080
2018-03-27T08:11:53.039Z,13100
2018-03-27T08:13:03.408Z,13412
2018-03-27T08:14:13.646Z,13976
2018-03-27T08:15:23.844Z,17312
2018-03-27T08:16:34.044Z,24064
2018-03-27T08:17:44.238Z,27552
2018-03-27T08:18:54.518Z,28448
2018-03-27T08:20:04.644Z,28512
2018-03-27T08:21:14.826Z,32672
2018-03-27T08:22:25.087Z,31584
2018-03-27T08:23:35.267Z,34432
2018-03-27T08:24:45.454Z,34752
2018-03-27T08:25:55.694Z,33120
2018-03-27T08:27:06.032Z,33856
2018-03-27T08:28:16.408Z,34080
2018-03-27T08:29:26.575Z,36384
2018-03-27T08:30:36.748Z,39360
2018-03-27T08:31:46.895Z,36480
2018-03-27T08:32:57.105Z,40256
2018-03-27T08:34:07.259Z,44128
2018-03-27T08:35:17.548Z,43616
2018-03-27T08:36:28.043Z,38912
2018-03-27T08:37:38.263Z,41664
2018-03-27T08:38:48.460Z,41344
2018-03-27T08:39:58.626Z,46368
2018-03-27T08:41:08.789Z,40224
2018-03-27T08:42:18.930Z,41952
2018-03-27T08:43:29.136Z,41984
2018-03-27T08:44:39.389Z,36768
2018-03-27T08:45:49.625Z,44256
2018-03-27T08:46:59.806Z,50432
2018-03-27T08:48:10.000Z,52096
2018-03-27T08:49:20.147Z,43584
2018-03-27T08:50:30.480Z,42272
2018-03-27T08:51:40.359Z,48704
2018-03-27T08:52:50.593Z,46720
2018-03-27T08:54:00.791Z,45888
2018-03-27T08:55:10.989Z,47616
2018-03-27T08:56:21.134Z,47488
2018-03-27T08:57:31.898Z,56960
2018-03-27T08:58:42.182Z,50816
2018-03-27T08:59:52.535Z,41984
2018-03-27T09:01:02.721Z,51264
2018-03-27T09:02:12.886Z,53728
2018-03-27T09:03:23.275Z,50720
2018-03-27T09:04:33.173Z,54336
2018-03-27T09:05:43.385Z,51616
2018-03-27T09:06:53.576Z,52096
2018-03-27T09:08:03.770Z,52096
2018-03-27T09:09:14.235Z,16076
2018-03-27T09:10:24.421Z,54144
2018-03-27T09:11:34.604Z,36896
2018-03-27T09:12:44.753Z,42560
2018-03-27T09:13:55.279Z,58848
2018-03-27T09:15:05.601Z,55904
2018-03-27T09:16:15.429Z,23648
2018-03-27T09:17:25.581Z,51648
2018-03-27T09:18:35.500Z,47840
2018-03-27T09:19:46.015Z,51776
2018-03-27T09:20:57.437Z,58240
2018-03-27T09:27:08.888Z,65504
2018-03-27T09:29:35.848Z,58688
2018-03-27T09:30:45.999Z,57824
2018-03-27T09:31:55.827Z,57984
2018-03-27T09:33:05.990Z,62240
2018-03-27T09:34:15.814Z,58688
2018-03-27T09:35:26.011Z,62272
2018-03-27T09:36:36.156Z,72096
2018-03-27T09:37:46.552Z,68256
2018-03-27T09:38:56.495Z,58080
2018-03-27T09:40:06.707Z,57728
2018-03-27T09:41:16.663Z,62016
2018-03-27T09:42:26.613Z,56448
2018-03-27T09:43:36.876Z,63168
2018-03-27T09:44:46.788Z,60128
2018-03-27T09:45:56.978Z,31552
2018-03-27T09:47:07.162Z,39968
2018-03-27T09:48:17.316Z,53632
2018-03-27T09:49:27.336Z,20192
2018-03-27T09:50:37.126Z,18080
2018-03-27T09:51:47.021Z,31712
2018-03-27T09:52:57.182Z,17664
2018-03-27T09:54:07.390Z,17824
2018-03-27T09:55:17.457Z,57984
2018-03-27T09:56:27.624Z,72704
2018-03-27T09:57:37.161Z,77600
2018-03-27T09:58:46.884Z,75136
2018-03-27T09:59:56.875Z,75072
2018-03-27T10:01:07.147Z,51872
2018-03-27T10:02:17.437Z,71808
2018-03-27T10:03:27.156Z,80032
2018-03-27T10:04:37.129Z,71008
2018-03-27T10:05:47.339Z,80320
2018-03-27T10:06:57.524Z,61920
2018-03-27T10:08:06.840Z,54848
2018-03-27T10:09:16.697Z,64224
2018-03-27T10:10:26.997Z,74624
2018-03-27T10:11:36.729Z,90080
2018-03-27T10:12:46.972Z,25184
2018-03-27T10:13:56.885Z,69824
2018-03-27T10:15:07.038Z,83264
2018-03-27T10:16:16.908Z,62016
2018-03-27T10:17:26.949Z,61792
2018-03-27T10:18:36.769Z,71840
2018-03-27T10:19:46.975Z,86624
2018-03-27T10:20:57.163Z,70976
2018-03-27T10:22:07.151Z,72224
2018-03-27T10:23:17.215Z,89600
2018-03-27T10:24:27.393Z,35488
2018-03-27T10:25:37.445Z,21696
2018-03-27T10:26:47.264Z,17888
2018-03-27T10:27:57.092Z,16448
2018-03-27T10:29:07.306Z,15156
2018-03-27T10:30:17.237Z,15396
2018-03-27T10:31:27.560Z,18048
2018-03-27T10:32:37.748Z,36480
2018-03-27T10:33:47.938Z,91552
2018-03-27T10:34:57.488Z,83648
2018-03-27T10:36:08.627Z,72608
2018-03-27T10:37:18.255Z,81760
2018-03-27T10:38:28.513Z,26816
2018-03-27T10:39:38.451Z,22816
2018-03-27T10:40:48.110Z,27648
2018-03-27T10:41:58.251Z,74944
2018-03-27T10:43:08.421Z,82112
2018-03-27T10:44:18.647Z,74208
2018-03-27T10:45:28.710Z,67008
2018-03-27T10:46:38.660Z,73312
2018-03-27T10:47:48.813Z,81408
2018-03-27T10:48:59.098Z,74816
2018-03-27T10:50:09.332Z,76032
2018-03-27T10:51:19.143Z,25056
2018-03-27T10:52:29.336Z,48608
2018-03-27T10:53:39.537Z,74112
2018-03-27T10:54:49.720Z,84640
2018-03-27T10:55:59.888Z,84256
2018-03-27T10:57:09.582Z,84864
2018-03-27T10:58:19.377Z,84064
2018-03-27T10:59:29.533Z,64800
2018-03-27T11:00:39.803Z,14600
2018-03-27T11:01:49.721Z,11540
2018-03-27T11:02:59.305Z,12056
2018-03-27T11:04:09.204Z,14164
2018-03-27T11:05:19.387Z,27008
2018-03-27T11:06:29.044Z,64800
2018-03-27T11:07:39.279Z,70080
2018-03-27T11:08:48.666Z,80960
2018-03-27T11:09:58.427Z,88864
2018-03-27T11:11:08.157Z,85568
2018-03-27T11:12:17.816Z,51072
2018-03-27T11:13:27.737Z,76160
2018-03-27T11:14:37.410Z,92320
2018-03-27T11:15:47.761Z,87040
2018-03-27T11:16:57.663Z,74144
2018-03-27T11:18:07.850Z,74592
2018-03-27T11:19:18.112Z,92704
2018-03-27T11:20:28.394Z,98272
2018-03-27T11:21:38.695Z,80512
2018-03-27T11:22:48.871Z,87328
2018-03-27T11:23:59.068Z,100384
2018-03-27T11:25:09.248Z,77024
2018-03-27T11:26:19.486Z,66816
2018-03-27T11:27:29.410Z,83552
2018-03-27T11:28:39.589Z,83936
2018-03-27T11:29:49.763Z,80160
2018-03-27T11:31:00.185Z,82592
2018-03-27T11:32:10.559Z,82752
2018-03-27T11:33:20.222Z,83808
2018-03-27T11:34:30.131Z,87808
2018-03-27T11:35:40.317Z,92992
2018-03-27T11:36:50.056Z,81728
2018-03-27T11:38:00.363Z,58784
2018-03-27T11:39:10.545Z,60352
2018-03-27T11:40:20.548Z,76448
2018-03-27T11:41:30.785Z,74272
2018-03-27T11:42:41.022Z,73472
2018-03-27T11:43:51.227Z,72064
2018-03-27T11:45:01.423Z,67872
2018-03-27T11:46:11.619Z,66624
2018-03-27T11:47:21.855Z,71104
2018-03-27T11:48:31.836Z,70464
2018-03-27T11:49:41.768Z,63744
2018-03-27T11:50:51.678Z,26624
2018-03-27T11:52:01.624Z,54272
2018-03-27T11:53:11.545Z,65824
2018-03-27T11:54:21.739Z,67392
2018-03-27T11:55:31.892Z,76800
2018-03-27T11:56:41.716Z,63456
2018-03-27T11:57:51.910Z,65984
2018-03-27T11:59:01.880Z,72480
2018-03-27T12:00:12.053Z,67232
2018-03-27T12:01:22.233Z,59296
2018-03-27T12:02:32.411Z,68928
2018-03-27T12:03:42.626Z,62304
2018-03-27T12:04:52.550Z,23264
2018-03-27T12:06:02.495Z,28384
2018-03-27T12:07:12.426Z,69984
2018-03-27T12:08:22.602Z,56672
2018-03-27T12:09:32.794Z,43296
2018-03-27T12:10:42.749Z,27008
2018-03-27T12:11:52.671Z,26592
2018-03-27T12:13:02.595Z,41600
2018-03-27T12:14:12.419Z,76608
2018-03-27T12:15:22.429Z,78592
2018-03-27T12:16:32.323Z,77248
2018-03-27T12:17:42.505Z,81120
2018-03-27T12:18:52.696Z,80256
2018-03-27T12:20:02.591Z,77440
2018-03-27T12:21:12.738Z,74112
2018-03-27T12:22:22.896Z,67616
2018-03-27T12:23:33.150Z,67808
2018-03-27T12:24:42.800Z,72672
2018-03-27T12:25:53.062Z,68128
2018-03-27T12:27:02.628Z,62784
2018-03-27T12:28:12.290Z,70048
2018-03-27T12:29:22.093Z,56416
2018-03-27T12:30:31.790Z,40704
2018-03-27T12:31:42.085Z,29824
2018-03-27T12:32:52.308Z,41312
2018-03-27T12:34:02.479Z,70464
2018-03-27T12:35:12.649Z,69856
2018-03-27T12:36:23.882Z,62208
2018-03-27T12:37:33.864Z,42080
2018-03-27T12:38:44.253Z,57664
2018-03-27T12:39:54.406Z,57600
2018-03-27T12:41:04.352Z,24096
2018-03-27T12:42:14.133Z,54272
2018-03-27T12:43:24.144Z,23776
2018-03-27T12:44:34.390Z,18240
2018-03-27T12:45:44.605Z,18624
2018-03-27T12:46:54.780Z,20736
2018-03-27T12:48:05.015Z,21760
2018-03-27T12:49:15.318Z,21792
2018-03-27T12:50:25.312Z,19552
2018-03-27T12:51:35.506Z,18368
2018-03-27T12:52:45.692Z,17920
2018-03-27T12:53:55.894Z,17344
2018-03-27T12:55:06.034Z,18912
2018-03-27T12:56:16.189Z,20992
2018-03-27T12:57:26.378Z,24384
2018-03-27T12:58:36.604Z,26816
2018-03-27T13:00:18.648Z,63808
2018-03-27T13:01:28.543Z,66272
2018-03-27T13:02:38.112Z,57216
2018-03-27T13:03:49.261Z,31424
2018-03-27T13:04:59.104Z,19808
2018-03-27T13:06:10.094Z,25088
2018-03-27T13:07:20.252Z,44448
2018-03-27T13:08:30.148Z,45760
2018-03-27T13:09:40.089Z,18496
2018-03-27T13:10:49.772Z,17216
2018-03-27T13:12:00.004Z,15060
2018-03-27T13:13:10.119Z,14116
2018-03-27T13:14:20.307Z,14392
2018-03-27T13:15:30.705Z,15648
2018-03-27T13:16:40.872Z,21696
2018-03-27T13:17:50.528Z,48448
2018-03-27T13:19:00.702Z,23232
2018-03-27T13:20:10.854Z,22304
2018-03-27T13:21:21.088Z,24192
2018-03-27T13:22:31.040Z,30880
2018-03-27T13:23:40.722Z,33792
2018-03-27T13:24:50.400Z,32000
2018-03-27T13:26:00.535Z,27104
2018-03-27T13:27:10.734Z,25408
2018-03-27T13:28:21.875Z,38624
2018-03-27T13:29:31.660Z,61088
2018-03-27T13:30:41.885Z,64896
2018-03-27T13:31:52.209Z,60672
2018-03-27T13:33:02.384Z,52960
2018-03-27T13:34:12.589Z,32640
2018-03-27T13:35:22.364Z,51392
2018-03-27T13:36:32.539Z,51008
2018-03-27T13:37:42.713Z,45472
2018-03-27T13:38:53.981Z,23360
2018-03-27T13:40:03.532Z,40320
2018-03-27T13:41:13.452Z,27168
2018-03-27T13:42:23.249Z,47584
2018-03-27T13:43:33.202Z,25216
2018-03-27T13:44:43.459Z,23904
2018-03-27T13:45:53.403Z,37024
2018-03-27T13:47:03.621Z,24864
2018-03-27T13:48:13.965Z,56576
2018-03-27T13:49:24.141Z,64480
2018-03-27T13:50:34.168Z,65056
2018-03-27T13:51:43.645Z,50016
2018-03-27T13:52:53.647Z,44288
2018-03-27T13:54:03.917Z,45440
2018-03-27T13:55:13.709Z,55872
2018-03-27T13:56:23.886Z,50848
2018-03-27T13:57:34.101Z,43808
2018-03-27T13:58:44.022Z,49152
2018-03-27T13:59:53.973Z,57952
2018-03-27T14:01:04.874Z,51552
2018-03-27T14:02:15.009Z,45216
2018-03-27T14:03:25.232Z,44032
2018-03-27T14:04:35.405Z,42528
2018-03-27T14:05:45.616Z,38304
2018-03-27T14:06:55.495Z,43488
2018-03-27T14:08:05.291Z,53152
2018-03-27T14:09:15.258Z,53984
2018-03-27T14:10:25.320Z,46400
2018-03-27T14:11:35.524Z,44192
2018-03-27T14:12:45.697Z,51456
2018-03-27T14:13:55.223Z,30400
2018-03-27T14:15:05.662Z,14612
2018-03-27T14:16:15.826Z,15456
2018-03-27T14:17:25.664Z,20192
2018-03-27T14:18:35.312Z,17376
2018-03-27T14:19:45.250Z,17312
2018-03-27T14:20:55.558Z,54688
2018-03-27T14:22:05.775Z,47232
2018-03-27T14:23:15.998Z,40320
2018-03-27T14:24:25.760Z,20352
2018-03-27T14:25:35.924Z,43296
2018-03-27T14:26:45.860Z,52704
2018-03-27T14:27:56.034Z,47264
2018-03-27T14:29:06.222Z,35072
2018-03-27T14:30:16.407Z,34016
2018-03-27T14:31:26.304Z,32992
2018-03-27T14:32:36.273Z,28736
2018-03-27T14:33:46.099Z,26400
2018-03-27T14:34:56.029Z,26400
2018-03-27T14:36:06.208Z,35328
2018-03-27T14:37:15.791Z,33920
2018-03-27T14:38:26.075Z,45248
2018-03-27T14:39:36.293Z,43648
2018-03-27T14:40:46.855Z,38336
2018-03-27T14:41:57.044Z,38880
2018-03-27T14:43:07.306Z,35840
2018-03-27T14:44:17.520Z,33696
2018-03-27T14:45:27.832Z,35808
2018-03-27T14:46:38.061Z,9548
2018-03-27T14:47:48.257Z,8920
2018-03-27T14:48:58.457Z,8324
2018-03-27T14:50:08.684Z,8616
2018-03-27T14:51:18.911Z,9364
2018-03-27T14:52:29.077Z,9052
2018-03-27T14:53:39.023Z,8284
2018-03-27T14:54:49.209Z,8492
2018-03-27T14:55:59.414Z,9148
2018-03-27T14:57:09.598Z,8884
2018-03-27T14:58:19.534Z,9416
2018-03-27T14:59:29.682Z,10692
2018-03-27T15:00:39.920Z,12936
2018-03-27T15:01:49.731Z,12008
2018-03-27T15:03:00.066Z,10052
2018-03-27T15:04:10.020Z,9768
2018-03-27T15:05:20.175Z,9836
2018-03-27T15:06:30.348Z,11480
2018-03-27T15:07:40.524Z,25984
2018-03-27T15:08:50.717Z,11660
2018-03-27T15:10:01.844Z,14368
2018-03-27T15:11:12.188Z,12560
2018-03-27T15:12:22.372Z,22848
2018-03-27T15:13:32.598Z,26464
2018-03-27T15:14:42.889Z,21536
2018-03-27T15:15:53.068Z,13992
2018-03-27T15:17:03.347Z,22528
2018-03-27T15:18:13.525Z,19584
2018-03-27T15:19:23.123Z,13640
2018-03-27T15:20:33.128Z,12040
2018-03-27T15:21:43.181Z,13292
2018-03-27T15:22:53.157Z,17664
2018-03-27T15:24:03.373Z,12360
2018-03-27T15:25:13.277Z,11296
2018-03-27T15:26:23.229Z,10616
2018-03-27T15:27:33.174Z,10256
2018-03-27T15:28:43.058Z,8652
2018-03-27T15:29:52.951Z,7880
2018-03-27T15:31:02.898Z,7488
2018-03-27T15:32:12.789Z,7228
2018-03-27T15:33:22.457Z,7168
2018-03-27T15:34:32.346Z,7028
2018-03-27T15:35:42.510Z,7024
2018-03-27T15:36:52.397Z,6868
2018-03-27T15:38:02.566Z,6608
2018-03-27T15:39:12.730Z,6192
2018-03-27T15:40:22.892Z,5596
2018-03-27T15:41:33.079Z,4696
2018-03-27T15:42:43.291Z,4664
2018-03-27T15:43:53.463Z,4512
2018-03-27T15:45:03.368Z,4492
2018-03-27T15:46:13.524Z,4240
2018-03-27T15:47:23.704Z,3948
2018-03-27T15:48:33.878Z,3936
2018-03-27T15:49:43.667Z,3756
2018-03-27T15:50:53.654Z,3588
2018-03-27T15:52:03.445Z,3516
2018-03-27T15:53:13.632Z,3776
2018-03-27T15:54:23.565Z,3716